Time;durP1;ratioP1;P1;durP2;ratioP2;P2;SDS_P1;SDS_P2;PMS_P1;PMS_P2;Temp;Humidity;BMP_temperature;BMP_pressure;BME280_temperature;BME280_humidity;BME280_pressure;Samples;Min_cycle;Max_cycle;Signal;HPM_P1;HPM_P2
2022/12/21 00:02:25;;;;;;;24.48;13.85;;;7.10;99.90;;;;;;6160640;23;20009;-69
2022/12/21 00:04:52;;;;;;;26.50;14.27;;;7.10;99.90;;;;;;6160062;23;20081;-69
2022/12/21 00:07:19;;;;;;;24.15;13.68;;;7.10;99.90;;;;;;6158856;23;20017;-69
2022/12/21 00:09:46;;;;;;;21.80;13.20;;;7.10;99.90;;;;;;6159944;23;20001;-68
2022/12/21 00:12:14;;;;;;;21.05;13.27;;;7.10;99.90;;;;;;6160630;23;20045;-69
2022/12/21 00:14:41;;;;;;;20.48;13.13;;;7.10;99.90;;;;;;6159956;23;20370;-68
2022/12/21 00:17:09;;;;;;;25.00;14.05;;;7.10;99.90;;;;;;6159956;23;19997;-69
2022/12/21 00:19:36;;;;;;;21.80;14.18;;;7.10;99.90;;;;;;6160127;23;20011;-68
2022/12/21 00:22:03;;;;;;;24.02;14.23;;;7.10;99.90;;;;;;6159831;23;20405;-69
2022/12/21 00:24:31;;;;;;;24.75;14.60;;;7.10;99.90;;;;;;6160689;23;20047;-69
2022/12/21 00:26:59;;;;;;;25.15;14.95;;;7.10;99.90;;;;;;6160642;23;20029;-69
2022/12/21 00:29:26;;;;;;;24.02;14.35;;;7.10;99.90;;;;;;6159816;23;20029;-68
2022/12/21 00:31:53;;;;;;;24.70;14.48;;;7.10;99.90;;;;;;6161652;23;20005;-69
2022/12/21 00:34:21;;;;;;;23.50;14.27;;;7.10;99.90;;;;;;6161841;23;20381;-69
2022/12/21 00:36:49;;;;;;;25.02;14.00;;;7.20;99.90;;;;;;6162058;23;20002;-69
2022/12/21 00:39:18;;;;;;;27.70;15.13;;;7.20;99.90;;;;;;6162714;23;20032;-67
2022/12/21 00:41:45;;;;;;;24.98;14.82;;;7.10;99.90;;;;;;6161783;23;20394;-67
2022/12/21 00:44:13;;;;;;;29.75;15.23;;;7.20;99.90;;;;;;6162564;23;20001;-66
2022/12/21 00:46:41;;;;;;;28.20;15.85;;;7.20;99.90;;;;;;6161882;23;19997;-66
2022/12/21 00:49:09;;;;;;;25.33;15.35;;;7.20;99.90;;;;;;6162109;23;19997;-67
2022/12/21 00:51:36;;;;;;;25.05;14.48;;;7.10;99.90;;;;;;6161704;23;20001;-67
2022/12/21 00:54:04;;;;;;;27.17;15.10;;;7.20;99.90;;;;;;6160402;23;20009;-66
2022/12/21 00:56:32;;;;;;;24.25;14.25;;;7.20;99.90;;;;;;6161706;23;20012;-66
2022/12/21 00:58:59;;;;;;;22.58;14.55;;;7.10;99.90;;;;;;6162604;23;19997;-66
2022/12/21 01:01:33;;;;;;;24.13;14.85;;;7.20;99.90;;;;;;6161675;23;20076;-68
2022/12/21 01:04:01;;;;;;;24.38;14.45;;;7.10;99.90;;;;;;6161670;23;20002;-69
2022/12/21 01:06:31;;;;;;;24.83;13.82;;;7.10;99.90;;;;;;6161683;23;20383;-67
2022/12/21 01:08:59;;;;;;;22.13;14.07;;;7.10;99.90;;;;;;6162488;23;20002;-67
2022/12/21 01:11:28;;;;;;;23.25;13.68;;;7.10;99.90;;;;;;6162176;23;20029;-67
2022/12/21 01:13:56;;;;;;;23.95;14.07;;;7.10;99.90;;;;;;6161949;23;20032;-67
2022/12/21 01:16:30;;;;;;;24.40;14.52;;;7.10;99.90;;;;;;6161579;23;20006;-66
2022/12/21 01:18:59;;;;;;;22.08;12.77;;;7.10;99.90;;;;;;6160342;23;20367;-67
2022/12/21 01:21:28;;;;;;;19.95;13.27;;;7.10;99.90;;;;;;6159816;23;20108;-66
2022/12/21 01:23:56;;;;;;;24.70;12.63;;;7.10;99.90;;;;;;6160155;23;20064;-67
2022/12/21 01:26:24;;;;;;;21.17;13.07;;;7.10;99.90;;;;;;6161420;23;20006;-67
2022/12/21 01:28:51;;;;;;;24.20;14.00;;;7.10;99.90;;;;;;6161533;23;20088;-66
2022/12/21 01:31:19;;;;;;;21.77;13.57;;;7.10;99.90;;;;;;6161281;23;20029;-66
2022/12/21 01:33:46;;;;;;;22.40;12.90;;;7.10;99.90;;;;;;6161261;23;20363;-67
2022/12/21 01:36:15;;;;;;;20.23;12.43;;;7.10;99.90;;;;;;6159977;23;20005;-67
2022/12/21 01:38:43;;;;;;;22.90;13.23;;;7.10;99.90;;;;;;6161380;23;20072;-67
2022/12/21 01:41:20;;;;;;;21.75;12.80;;;7.10;99.90;;;;;;6161709;23;20378;-67
2022/12/21 01:43:51;;;;;;;22.77;13.10;;;7.10;99.90;;;;;;6159688;23;20016;-66
2022/12/21 01:46:31;;;;;;;21.52;13.10;;;7.10;99.90;;;;;;6159973;23;20060;-67
2022/12/21 01:49:19;;;;;;;20.98;13.32;;;7.10;99.90;;;;;;6159812;23;20017;-67
2022/12/21 01:52:05;;;;;;;19.48;11.77;;;7.10;99.90;;;;;;6161320;23;20005;-67
2022/12/21 01:54:58;;;;;;;20.80;12.77;;;7.10;99.90;;;;;;6162124;23;20002;-68
2022/12/21 01:57:29;;;;;;;23.65;13.00;;;7.10;99.90;;;;;;6161260;23;20001;-69
2022/12/21 02:00:00;;;;;;;21.52;13.15;;;7.10;99.90;;;;;;6161441;23;20005;-67
2022/12/21 02:02:39;;;;;;;19.70;11.88;;;7.10;99.90;;;;;;6159811;23;20009;-67
2022/12/21 02:05:33;;;;;;;22.65;12.55;;;7.10;99.90;;;;;;6161118;23;20317;-66
2022/12/21 02:08:04;;;;;;;20.40;11.88;;;7.10;99.90;;;;;;6156054;23;20012;-67
2022/12/21 02:10:33;;;;;;;22.02;12.50;;;7.10;99.90;;;;;;6160958;23;20450;-67
2022/12/21 02:13:05;;;;;;;20.92;12.43;;;7.10;99.90;;;;;;6161237;23;20002;-66
2022/12/21 02:15:55;;;;;;;20.65;12.30;;;7.10;99.90;;;;;;6161635;23;19997;-66
2022/12/21 02:18:45;;;;;;;23.08;13.65;;;7.10;99.90;;;;;;6147193;23;20002;-67
2022/12/21 02:21:16;;;;;;;22.67;13.05;;;7.10;99.90;;;;;;6160744;23;20013;-67
2022/12/21 02:24:19;;;;;;;23.20;13.95;;;7.20;99.90;;;;;;6161785;23;20005;-67
2022/12/21 02:26:53;;;;;;;25.30;13.43;;;7.10;99.90;;;;;;6160905;23;20060;-66
2022/12/21 02:29:39;;;;;;;23.35;13.48;;;7.20;99.90;;;;;;6161492;23;20006;-67
2022/12/21 02:32:19;;;;;;;25.27;14.32;;;7.20;99.90;;;;;;6159490;23;20060;-67
2022/12/21 02:35:12;;;;;;;22.10;12.63;;;7.20;99.90;;;;;;6159418;23;20001;-66
2022/12/21 02:38:02;;;;;;;21.08;13.18;;;7.20;99.90;;;;;;6161488;23;20002;-67
2022/12/21 02:40:47;;;;;;;21.23;12.13;;;7.20;99.90;;;;;;6161427;23;20005;-67
2022/12/21 02:44:15;;;;;;;21.75;12.38;;;7.10;99.90;;;;;;6159599;23;20012;-67
2022/12/21 02:47:04;;;;;;;22.30;12.55;;;7.10;99.90;;;;;;6152600;23;20009;-67
2022/12/21 02:49:55;;;;;;;24.50;12.65;;;7.10;99.90;;;;;;6160867;23;20032;-67
2022/12/21 02:52:33;;;;;;;52.70;20.08;;;7.10;99.90;;;;;;6161390;23;20080;-67
2022/12/21 02:55:01;;;;;;;82.20;26.17;;;7.00;99.90;;;;;;6161233;23;20051;-67
2022/12/21 02:57:40;;;;;;;54.33;20.45;;;7.10;99.90;;;;;;6159281;23;20080;-66
2022/12/21 03:00:10;;;;;;;24.65;14.07;;;7.00;99.90;;;;;;6159186;23;20037;-66
2022/12/21 03:06:27;;;;;;;19.30;12.02;;;6.90;99.90;;;;;;6160536;23;20406;-68
2022/12/21 03:09:12;;;;;;;18.95;11.38;;;6.90;99.90;;;;;;6096741;23;20016;-69
2022/12/21 03:11:54;;;;;;;20.88;11.85;;;6.90;99.90;;;;;;6161043;23;20009;-69
2022/12/21 03:14:41;;;;;;;21.67;12.88;;;6.80;99.90;;;;;;6160505;23;19998;-68
2022/12/21 03:17:42;;;;;;;24.85;13.77;;;6.80;99.90;;;;;;6160055;23;20036;-68
2022/12/21 03:20:26;;;;;;;25.70;13.82;;;6.80;99.90;;;;;;6160423;23;20008;-69
2022/12/21 03:23:25;;;;;;;23.88;12.93;;;6.80;99.90;;;;;;6159065;23;20009;-69
2022/12/21 03:26:26;;;;;;;21.70;11.77;;;6.80;99.90;;;;;;6158966;23;20017;-68
2022/12/21 03:28:55;;;;;;;38.42;13.80;;;6.80;99.90;;;;;;6153530;23;20032;-68
2022/12/21 03:31:30;;;;;;;112.40;15.88;;;6.70;99.90;;;;;;6160196;23;20009;-69
2022/12/21 03:34:07;;;;;;;170.00;20.77;;;6.70;99.90;;;;;;6159046;23;19998;-69
2022/12/21 03:37:09;;;;;;;111.88;15.50;;;6.70;99.90;;;;;;6160257;23;20005;-69
2022/12/21 03:39:42;;;;;;;193.07;17.45;;;6.60;99.90;;;;;;6128486;23;20327;-69
2022/12/21 03:42:21;;;;;;;123.55;14.75;;;6.60;99.90;;;;;;6160405;23;20059;-69
2022/12/21 03:44:57;;;;;;;113.00;14.45;;;6.60;99.90;;;;;;6160844;23;20410;-69
2022/12/21 03:47:44;;;;;;;75.97;11.85;;;6.50;99.90;;;;;;6160105;23;20381;-68
2022/12/21 03:50:18;;;;;;;37.78;12.40;;;6.50;99.90;;;;;;6160749;23;20049;-69
2022/12/21 03:53:03;;;;;;;162.55;13.15;;;6.50;99.90;;;;;;6160344;23;19998;-69
2022/12/21 03:55:35;;;;;;;33.13;15.70;;;6.50;99.90;;;;;;6160828;23;19997;-69
2022/12/21 03:58:03;;;;;;;167.68;35.83;;;6.50;99.90;;;;;;6158771;23;20060;-68
2022/12/21 04:01:00;;;;;;;201.73;20.90;;;6.50;99.90;;;;;;6158756;23;20390;-68
2022/12/21 04:03:38;;;;;;;216.80;36.65;;;6.50;99.90;;;;;;6160682;23;20005;-67
2022/12/21 04:06:19;;;;;;;236.50;42.30;;;6.40;99.90;;;;;;6159609;23;20056;-67
2022/12/21 04:08:48;;;;;;;110.60;26.90;;;6.40;99.90;;;;;;6160004;23;20005;-67
2022/12/21 04:12:36;;;;;;;118.80;29.10;;;6.40;99.90;;;;;;6160521;23;20425;-67
2022/12/21 04:14:02;;;;;;;52.47;13.23;;;6.40;99.90;;;;;;6159649;23;20080;-67
2022/12/21 04:16:29;;;;;;;98.15;15.27;;;6.40;99.90;;;;;;6159964;23;20072;-66
2022/12/21 04:21:42;;;;;;;142.48;14.38;;;6.40;99.90;;;;;;6159683;23;20036;-66
2022/12/21 04:28:07;;;;;;;75.53;16.37;;;6.50;99.90;;;;;;6160286;23;20279;-67
2022/12/21 04:29:57;;;;;;;39.22;12.57;;;6.50;99.90;;;;;;6159526;23;20245;-67
2022/12/21 04:32:24;;;;;;;203.73;59.65;;;6.50;99.90;;;;;;6160021;23;20048;-66
2022/12/21 04:34:52;;;;;;;86.03;21.83;;;6.50;99.90;;;;;;6158551;23;20032;-66
2022/12/21 04:37:32;;;;;;;118.30;16.35;;;6.50;99.90;;;;;;6160893;23;20264;-67
2022/12/21 04:40:00;;;;;;;175.10;18.75;;;6.50;99.90;;;;;;6160211;23;20438;-68
2022/12/21 04:42:27;;;;;;;59.00;10.55;;;6.50;99.90;;;;;;6159131;23;20274;-68
2022/12/21 04:44:55;;;;;;;167.20;16.23;;;6.40;99.90;;;;;;6158442;23;20029;-69
2022/12/21 04:47:23;;;;;;;107.32;12.90;;;6.40;99.90;;;;;;6159828;23;20069;-67
2022/12/21 04:49:50;;;;;;;69.22;12.18;;;6.40;99.90;;;;;;6159753;23;20025;-67
2022/12/21 04:52:18;;;;;;;60.38;12.30;;;6.30;99.90;;;;;;6160589;23;20002;-67
2022/12/21 04:54:45;;;;;;;90.78;13.50;;;6.30;99.90;;;;;;6160425;23;20006;-67
2022/12/21 04:57:12;;;;;;;27.40;12.38;;;6.30;99.90;;;;;;6160446;23;20002;-66
2022/12/21 04:59:40;;;;;;;53.75;20.17;;;6.30;99.90;;;;;;6158447;23;20056;-67
2022/12/21 05:02:07;;;;;;;33.60;14.55;;;6.30;99.90;;;;;;6160252;23;20259;-67
2022/12/21 05:04:34;;;;;;;35.85;15.13;;;6.40;99.90;;;;;;6160024;23;20499;-66
2022/12/21 05:07:02;;;;;;;34.45;14.27;;;6.30;99.90;;;;;;6159792;23;20052;-67
2022/12/21 05:09:30;;;;;;;38.30;13.82;;;6.40;99.90;;;;;;6158258;23;20005;-68
2022/12/21 05:11:57;;;;;;;26.13;12.43;;;6.40;99.90;;;;;;6160323;23;20036;-69
2022/12/21 05:14:24;;;;;;;26.30;11.70;;;6.40;99.90;;;;;;6160190;23;19997;-69
2022/12/21 05:16:52;;;;;;;40.83;8.27;;;6.40;99.90;;;;;;6161277;23;20232;-67
2022/12/21 05:19:20;;;;;;;19.25;8.70;;;6.40;99.90;;;;;;6161517;23;20272;-67
2022/12/21 05:21:47;;;;;;;71.90;10.45;;;6.40;99.90;;;;;;6159885;23;20361;-66
2022/12/21 05:24:15;;;;;;;18.52;9.10;;;6.30;99.90;;;;;;6162023;23;20259;-66
2022/12/21 05:26:42;;;;;;;101.75;10.90;;;6.30;99.90;;;;;;6161474;23;20135;-66
2022/12/21 05:29:11;;;;;;;65.68;9.57;;;6.30;99.90;;;;;;6160120;23;20009;-67
2022/12/21 05:31:38;;;;;;;18.52;8.23;;;6.20;99.90;;;;;;6162061;23;20060;-66
2022/12/21 05:34:05;;;;;;;67.22;16.52;;;6.20;99.90;;;;;;6162014;23;20418;-66
2022/12/21 05:36:32;;;;;;;27.23;11.88;;;6.10;99.90;;;;;;6160069;23;20005;-66
2022/12/21 05:38:59;;;;;;;18.08;8.75;;;6.10;99.90;;;;;;6161594;23;20022;-66
2022/12/21 05:41:26;;;;;;;48.55;9.30;;;6.10;99.90;;;;;;6161309;23;20005;-67
2022/12/21 05:43:55;;;;;;;123.40;13.13;;;6.20;99.90;;;;;;6161675;23;20002;-67
2022/12/21 05:46:22;;;;;;;69.90;11.30;;;6.10;99.90;;;;;;6161640;23;20084;-66
2022/12/21 05:48:50;;;;;;;73.18;12.00;;;6.10;99.90;;;;;;6161302;23;20017;-67
2022/12/21 05:51:17;;;;;;;142.02;14.57;;;6.10;99.90;;;;;;6159780;23;20040;-67
2022/12/21 05:53:45;;;;;;;41.90;9.38;;;6.10;99.90;;;;;;6161240;23;19997;-67
2022/12/21 05:56:12;;;;;;;57.67;15.07;;;6.20;99.90;;;;;;6161140;23;20096;-66
2022/12/21 05:58:40;;;;;;;94.28;14.55;;;6.10;99.90;;;;;;6159990;23;20275;-66
2022/12/21 06:01:09;;;;;;;46.42;12.98;;;6.20;99.90;;;;;;6161838;23;20063;-68
2022/12/21 06:03:37;;;;;;;28.45;10.40;;;6.20;99.90;;;;;;6159823;23;20009;-66
2022/12/21 06:06:10;;;;;;;33.05;11.02;;;6.30;99.90;;;;;;6161071;23;20005;-68
2022/12/21 06:08:38;;;;;;;31.67;10.82;;;6.30;99.90;;;;;;6161260;23;20013;-69
2022/12/21 06:11:17;;;;;;;32.58;11.65;;;6.40;99.90;;;;;;6161722;23;20060;-69
2022/12/21 06:13:45;;;;;;;71.00;12.43;;;6.40;99.90;;;;;;6161009;23;20001;-69
2022/12/21 06:16:16;;;;;;;49.45;10.63;;;6.50;99.90;;;;;;6135268;23;20005;-69
2022/12/21 06:18:44;;;;;;;25.75;9.95;;;6.50;99.90;;;;;;6161085;23;20307;-69
2022/12/21 06:21:13;;;;;;;39.83;11.60;;;6.50;99.90;;;;;;6160760;23;20540;-69
2022/12/21 06:23:41;;;;;;;168.45;16.67;;;6.50;99.90;;;;;;6161007;23;20005;-69
2022/12/21 06:26:12;;;;;;;45.15;13.65;;;6.60;99.90;;;;;;6159542;23;20429;-69
2022/12/21 06:28:40;;;;;;;30.17;12.45;;;6.60;99.90;;;;;;6159334;23;20005;-69
2022/12/21 06:31:10;;;;;;;34.42;11.98;;;6.60;99.90;;;;;;6161084;23;20009;-69
2022/12/21 06:33:37;;;;;;;52.47;13.63;;;6.70;99.90;;;;;;6160772;23;20001;-69
2022/12/21 06:36:06;;;;;;;41.80;13.07;;;6.70;99.90;;;;;;6160813;23;20033;-69
2022/12/21 06:38:34;;;;;;;51.15;11.70;;;6.70;99.90;;;;;;6160910;23;20385;-69
2022/12/21 06:41:05;;;;;;;32.90;12.02;;;6.70;99.90;;;;;;6160638;23;20016;-67
2022/12/21 06:43:34;;;;;;;35.30;12.30;;;6.70;99.90;;;;;;6160702;23;20009;-67
2022/12/21 06:46:07;;;;;;;32.38;10.95;;;6.80;99.90;;;;;;6160680;23;20068;-66
2022/12/21 06:48:35;;;;;;;34.60;11.30;;;6.80;99.90;;;;;;6159244;23;20009;-67
2022/12/21 06:51:06;;;;;;;34.30;12.95;;;6.80;99.90;;;;;;6160554;23;20378;-67
2022/12/21 06:53:36;;;;;;;58.45;12.18;;;6.80;99.90;;;;;;6160672;23;20079;-69
2022/12/21 06:56:12;;;;;;;25.30;10.05;;;6.80;99.90;;;;;;6159250;23;20359;-68
2022/12/21 06:58:40;;;;;;;26.77;10.75;;;6.80;99.90;;;;;;6160515;23;20008;-69
2022/12/21 07:01:10;;;;;;;29.02;10.65;;;6.80;99.90;;;;;;6161206;23;20006;-69
2022/12/21 07:03:38;;;;;;;30.42;12.50;;;6.80;99.90;;;;;;6159323;23;20006;-68
2022/12/21 07:06:06;;;;;;;31.17;11.48;;;6.80;99.90;;;;;;6159165;23;20442;-69
2022/12/21 07:08:33;;;;;;;28.13;11.70;;;6.90;99.90;;;;;;6160529;23;20012;-69
2022/12/21 07:11:08;;;;;;;27.23;11.82;;;6.80;99.90;;;;;;6160269;23;20001;-78
2022/12/21 07:13:37;;;;;;;25.05;11.52;;;6.90;99.90;;;;;;6158569;23;20367;-74
2022/12/21 07:16:05;;;;;;;28.55;12.45;;;6.90;99.90;;;;;;6160894;23;20011;-72
2022/12/21 07:18:34;;;;;;;31.58;12.88;;;6.90;99.90;;;;;;6160563;23;20334;-74
2022/12/21 07:21:05;;;;;;;27.20;12.18;;;7.00;99.90;;;;;;6158901;23;20025;-74
2022/12/21 07:23:34;;;;;;;35.00;12.68;;;7.00;99.90;;;;;;6160792;23;20010;-73
2022/12/21 07:26:06;;;;;;;31.20;12.75;;;7.00;99.90;;;;;;6162996;23;20008;-75
2022/12/21 07:28:33;;;;;;;29.50;13.00;;;7.00;99.90;;;;;;6163127;23;20359;-72
2022/12/21 07:31:09;;;;;;;34.97;13.10;;;7.00;99.90;;;;;;6160150;23;20016;-72
2022/12/21 07:33:37;;;;;;;33.47;13.27;;;7.00;99.90;;;;;;6162008;23;20006;-71
2022/12/21 07:36:09;;;;;;;28.52;13.10;;;7.00;99.90;;;;;;6163776;23;20001;-71
2022/12/21 07:38:37;;;;;;;32.50;12.80;;;7.00;99.90;;;;;;6162146;23;20041;-71
2022/12/21 07:41:07;;;;;;;27.75;11.45;;;7.00;99.90;;;;;;6158920;23;20065;-71
2022/12/21 07:43:35;;;;;;;29.10;11.55;;;7.00;99.90;;;;;;6165904;23;20012;-71
2022/12/21 07:46:03;;;;;;;25.88;10.50;;;7.10;99.90;;;;;;6161001;23;20017;-70
2022/12/21 07:48:31;;;;;;;24.92;10.30;;;7.10;99.90;;;;;;6161369;23;20006;-71
2022/12/21 07:50:58;;;;;;;24.08;10.20;;;7.00;99.90;;;;;;6160076;23;20009;-73
2022/12/21 07:53:26;;;;;;;24.88;10.18;;;7.00;99.90;;;;;;6162226;23;20010;-72
2022/12/21 07:55:59;;;;;;;23.50;10.43;;;7.00;99.90;;;;;;6160775;23;20008;-70
2022/12/21 07:58:27;;;;;;;24.05;10.35;;;6.90;99.90;;;;;;6165164;23;20001;-70
2022/12/21 08:00:54;;;;;;;23.25;10.05;;;6.90;99.90;;;;;;6161243;23;20315;-71
2022/12/21 08:03:21;;;;;;;21.90;9.20;;;6.90;99.90;;;;;;6159968;23;20009;-69
2022/12/21 08:05:48;;;;;;;23.98;10.00;;;6.90;99.90;;;;;;6160054;23;20005;-73
2022/12/21 08:08:16;;;;;;;21.52;9.63;;;6.90;99.90;;;;;;6158621;23;20088;-69
2022/12/21 08:10:46;;;;;;;21.20;10.35;;;6.90;99.90;;;;;;6160365;23;20047;-70
2022/12/21 08:13:14;;;;;;;23.13;10.63;;;7.00;99.90;;;;;;6158622;23;20271;-73
2022/12/21 08:15:42;;;;;;;23.23;9.93;;;7.00;99.90;;;;;;6160609;23;20095;-71
2022/12/21 08:18:09;;;;;;;24.48;9.73;;;7.00;99.90;;;;;;6160039;23;20002;-70
2022/12/21 08:20:37;;;;;;;21.83;9.75;;;7.10;99.90;;;;;;6158196;23;20017;-72
2022/12/21 08:23:04;;;;;;;21.95;9.70;;;7.10;99.90;;;;;;6158592;23;20033;-70
2022/12/21 08:25:32;;;;;;;20.33;9.75;;;7.10;99.90;;;;;;6158541;23;20020;-71
2022/12/21 08:27:59;;;;;;;25.15;10.43;;;7.00;99.90;;;;;;6160075;23;20056;-71
2022/12/21 08:30:26;;;;;;;19.02;9.55;;;7.00;99.90;;;;;;6160781;23;20313;-71
2022/12/21 08:32:53;;;;;;;18.70;9.60;;;7.00;99.90;;;;;;6159817;23;20382;-70
2022/12/21 08:35:20;;;;;;;23.75;10.70;;;7.10;99.90;;;;;;6160511;23;20048;-71
2022/12/21 08:37:48;;;;;;;25.77;11.20;;;7.10;99.90;;;;;;6160063;23;20006;-71
2022/12/21 08:40:15;;;;;;;23.85;10.27;;;7.10;99.90;;;;;;6158406;23;20017;-78
2022/12/21 08:42:42;;;;;;;23.90;11.98;;;7.10;99.90;;;;;;6159835;23;20331;-70
2022/12/21 08:45:10;;;;;;;22.95;10.00;;;7.10;99.90;;;;;;6159811;23;20006;-71
2022/12/21 08:47:37;;;;;;;21.80;10.75;;;7.20;99.90;;;;;;6159854;23;20029;-70
2022/12/21 08:50:05;;;;;;;21.77;10.25;;;7.20;99.90;;;;;;6159608;23;20010;-72
2022/12/21 08:52:33;;;;;;;21.98;10.73;;;7.20;99.90;;;;;;6161571;23;20354;-70
2022/12/21 08:55:01;;;;;;;23.38;9.98;;;7.20;99.90;;;;;;6162385;23;19998;-68
2022/12/21 08:57:28;;;;;;;19.98;10.57;;;7.20;99.90;;;;;;6160553;23;20005;-69
2022/12/21 08:59:55;;;;;;;22.10;9.93;;;7.30;99.90;;;;;;6162012;23;20001;-69
2022/12/21 09:02:22;;;;;;;22.88;10.32;;;7.30;99.90;;;;;;6160243;23;20012;-70
2022/12/21 09:04:50;;;;;;;22.15;10.93;;;7.40;99.90;;;;;;6160172;23;20015;-69
2022/12/21 09:07:17;;;;;;;19.98;10.73;;;7.40;99.90;;;;;;6160499;23;20012;-71
2022/12/21 09:09:44;;;;;;;21.35;10.93;;;7.40;99.90;;;;;;6162158;23;20002;-72
2022/12/21 09:12:11;;;;;;;20.92;11.40;;;7.40;99.90;;;;;;6162301;23;20084;-70
2022/12/21 09:14:39;;;;;;;19.70;10.45;;;7.50;99.90;;;;;;6162278;23;19998;-70
2022/12/21 09:17:06;;;;;;;18.13;10.15;;;7.50;99.90;;;;;;6160700;23;20009;-72
2022/12/21 09:19:33;;;;;;;19.70;10.38;;;7.50;99.90;;;;;;6160104;23;20006;-70
2022/12/21 09:22:00;;;;;;;19.75;10.70;;;7.60;99.90;;;;;;6161286;23;20037;-70
2022/12/21 09:24:28;;;;;;;17.85;10.45;;;7.60;99.90;;;;;;6160091;23;20040;-70
2022/12/21 09:26:56;;;;;;;18.60;10.20;;;7.60;99.90;;;;;;6161422;23;20029;-70
2022/12/21 09:29:23;;;;;;;17.58;9.27;;;7.70;99.90;;;;;;6161561;23;20004;-70
2022/12/21 09:31:51;;;;;;;17.23;9.77;;;7.60;99.90;;;;;;6162060;23;20248;-70
2022/12/21 09:34:19;;;;;;;17.20;9.57;;;7.60;99.90;;;;;;6160230;23;20275;-70
2022/12/21 09:36:48;;;;;;;15.57;8.60;;;7.60;99.90;;;;;;6161460;23;20001;-70
2022/12/21 09:39:16;;;;;;;15.63;9.32;;;7.60;99.90;;;;;;6161538;23;20081;-70
2022/12/21 09:42:16;;;;;;;15.63;8.73;;;7.60;99.90;;;;;;6161737;23;20397;-70
2022/12/21 09:45:06;;;;;;;14.77;8.65;;;7.60;99.90;;;;;;6162029;23;20006;-70
2022/12/21 09:47:45;;;;;;;16.50;9.35;;;7.60;99.90;;;;;;6160109;23;20332;-70
2022/12/21 09:50:25;;;;;;;17.05;9.77;;;7.60;99.90;;;;;;6161838;23;20002;-70
2022/12/21 09:53:12;;;;;;;15.95;9.63;;;7.70;99.90;;;;;;6161336;23;20012;-70
2022/12/21 09:55:54;;;;;;;15.02;7.80;;;7.70;99.90;;;;;;6161575;23;20025;-70
2022/12/21 09:58:56;;;;;;;14.45;8.43;;;7.70;99.90;;;;;;6161799;23;20006;-70
2022/12/21 10:01:30;;;;;;;14.55;8.88;;;7.70;99.90;;;;;;6147613;23;20080;-70
2022/12/21 10:04:18;;;;;;;13.30;8.40;;;7.70;99.90;;;;;;6161263;23;20005;-70
2022/12/21 10:07:19;;;;;;;21.05;10.75;;;7.80;99.90;;;;;;6159833;23;20005;-70
2022/12/21 10:10:07;;;;;;;17.95;9.98;;;7.80;99.90;;;;;;6161377;23;20029;-70
2022/12/21 10:12:55;;;;;;;14.60;8.77;;;7.80;99.90;;;;;;6161802;23;20073;-70
2022/12/21 10:15:54;;;;;;;13.43;7.68;;;7.90;99.90;;;;;;6161088;23;20445;-70
2022/12/21 10:18:38;;;;;;;10.52;6.40;;;7.90;99.90;;;;;;6159826;23;20383;-70
2022/12/21 10:21:33;;;;;;;11.43;6.90;;;7.90;99.90;;;;;;6160810;23;20341;-70
2022/12/21 10:24:11;;;;;;;9.65;6.15;;;8.00;99.90;;;;;;6161329;23;20002;-70
2022/12/21 10:26:38;;;;;;;6.93;4.88;;;8.10;99.90;;;;;;6161002;23;20028;-70
2022/12/21 10:29:16;;;;;;;8.35;5.28;;;8.20;99.90;;;;;;6159618;23;20037;-70
2022/12/21 10:31:45;;;;;;;9.65;6.28;;;8.30;99.90;;;;;;6160799;23;20016;-70
2022/12/21 10:34:36;;;;;;;10.15;6.28;;;8.40;99.90;;;;;;6159455;23;20037;-72
2022/12/21 10:37:18;;;;;;;9.05;6.30;;;8.40;99.90;;;;;;6159522;23;20005;-72
2022/12/21 10:39:48;;;;;;;8.48;5.72;;;8.30;99.90;;;;;;6160862;23;20004;-70
2022/12/21 10:42:37;;;;;;;9.73;6.38;;;8.30;99.90;;;;;;6161130;23;20002;-70
2022/12/21 10:45:05;;;;;;;8.27;5.90;;;8.20;99.90;;;;;;6162631;23;20005;-70
2022/12/21 10:47:33;;;;;;;10.80;5.85;;;8.20;99.90;;;;;;6159383;23;20108;-70
2022/12/21 10:50:25;;;;;;;9.15;6.60;;;8.20;99.90;;;;;;6160654;23;20006;-70
2022/12/21 10:53:00;;;;;;;8.98;5.38;;;8.20;99.90;;;;;;6161584;23;20025;-70
2022/12/21 10:55:36;;;;;;;8.73;6.00;;;8.30;99.90;;;;;;6161024;23;20068;-70
2022/12/21 10:58:25;;;;;;;11.45;6.55;;;8.30;99.90;;;;;;6161378;23;20001;-70
2022/12/21 11:01:27;;;;;;;9.93;6.18;;;8.40;99.90;;;;;;6160642;23;20005;-70
2022/12/21 11:04:31;;;;;;;17.08;8.40;;;8.40;99.90;;;;;;6155764;23;20394;-70
2022/12/21 11:07:25;;;;;;;20.13;11.27;;;8.50;99.90;;;;;;6100605;23;20085;-70
2022/12/21 11:09:58;;;;;;;21.25;10.13;;;8.50;99.90;;;;;;6160464;23;20010;-70
2022/12/21 11:12:26;;;;;;;8.65;5.95;;;8.50;99.90;;;;;;6161433;23;20269;-70
2022/12/21 11:14:55;;;;;;;9.10;5.50;;;8.50;99.90;;;;;;6160399;23;20008;-70
2022/12/21 11:17:29;;;;;;;8.60;6.28;;;8.40;99.90;;;;;;6161246;23;20024;-70
2022/12/21 11:20:17;;;;;;;8.30;5.93;;;8.40;99.90;;;;;;6160403;23;20013;-70
2022/12/21 11:22:47;;;;;;;8.18;5.72;;;8.30;99.90;;;;;;6161292;23;20099;-70
2022/12/21 11:25:19;;;;;;;8.18;5.45;;;8.30;99.90;;;;;;6160400;23;20068;-70
2022/12/21 11:27:49;;;;;;;8.07;5.65;;;8.40;99.90;;;;;;6159095;23;20072;-70
2022/12/21 11:30:28;;;;;;;7.20;4.30;;;8.50;99.90;;;;;;6160093;23;20287;-70
2022/12/21 11:32:56;;;;;;;9.07;5.07;;;8.60;99.90;;;;;;6159120;23;20012;-71
2022/12/21 11:35:34;;;;;;;9.73;6.05;;;8.70;99.90;;;;;;6160313;23;19998;-70
2022/12/21 11:38:14;;;;;;;13.50;6.70;;;8.70;99.90;;;;;;6160704;23;20005;-70
2022/12/21 11:41:02;;;;;;;12.95;6.38;;;8.80;99.90;;;;;;6158907;23;20264;-70
2022/12/21 11:43:29;;;;;;;12.13;6.93;;;8.90;99.90;;;;;;6160261;23;20005;-70
2022/12/21 11:46:16;;;;;;;7.57;5.28;;;9.00;99.90;;;;;;6160858;23;20002;-70
2022/12/21 11:48:53;;;;;;;11.52;6.03;;;8.90;99.90;;;;;;6160799;23;20005;-70
2022/12/21 11:51:30;;;;;;;17.65;8.02;;;8.90;99.90;;;;;;6160001;23;20005;-70
2022/12/21 11:54:32;;;;;;;22.77;10.50;;;8.90;99.90;;;;;;6160138;23;20005;-70
2022/12/21 11:57:44;;;;;;;9.48;5.97;;;8.90;99.90;;;;;;6183706;23;20012;-70
2022/12/21 12:00:20;;;;;;;22.13;11.05;;;8.90;99.90;;;;;;6042015;23;20011;-70
2022/12/21 12:02:51;;;;;;;42.20;18.20;;;8.90;99.90;;;;;;6143926;23;20315;-70
2022/12/21 12:05:31;;;;;;;10.18;6.22;;;9.00;99.90;;;;;;6160751;23;20005;-70
2022/12/21 12:08:32;;;;;;;7.78;5.00;;;9.10;99.90;;;;;;6160166;23;20008;-70
2022/12/21 12:11:27;;;;;;;6.32;4.38;;;9.20;99.90;;;;;;6160267;23;20001;-70
2022/12/21 12:14:04;;;;;;;7.60;4.35;;;9.30;99.90;;;;;;6161100;23;20449;-70
2022/12/21 12:17:14;;;;;;;5.72;4.47;;;9.30;99.90;;;;;;6160710;23;20014;-70
2022/12/21 12:19:55;;;;;;;6.65;4.30;;;9.30;99.90;;;;;;6159960;23;20409;-70
2022/12/21 12:22:31;;;;;;;7.32;5.03;;;9.30;99.90;;;;;;6159827;23;20020;-70
2022/12/21 12:25:04;;;;;;;7.30;5.30;;;9.30;99.90;;;;;;6159962;23;20001;-70
2022/12/21 12:27:55;;;;;;;7.15;4.53;;;9.30;99.90;;;;;;6160547;23;20072;-70
2022/12/21 12:30:40;;;;;;;7.15;5.55;;;9.40;99.90;;;;;;6160503;23;20044;-70
2022/12/21 12:33:38;;;;;;;8.23;4.68;;;9.30;99.90;;;;;;6160220;23;20386;-70
2022/12/21 12:36:42;;;;;;;6.75;4.80;;;9.40;99.90;;;;;;6160626;23;19997;-70
2022/12/21 12:39:30;;;;;;;7.82;5.00;;;9.30;99.90;;;;;;6160061;23;19997;-70
2022/12/21 12:42:30;;;;;;;9.75;5.82;;;9.30;99.90;;;;;;6160551;23;20010;-70
2022/12/21 12:45:26;;;;;;;9.50;6.55;;;9.30;99.90;;;;;;6160548;23;20060;-70
2022/12/21 12:48:38;;;;;;;13.07;7.22;;;9.30;99.90;;;;;;6160257;23;20002;-70
2022/12/21 12:51:20;;;;;;;11.40;7.05;;;9.30;99.90;;;;;;6160386;23;20081;-70
2022/12/21 12:54:01;;;;;;;11.18;7.15;;;9.40;99.90;;;;;;6160812;23;20008;-70
2022/12/21 12:56:55;;;;;;;14.95;8.57;;;9.30;99.90;;;;;;6160532;23;20002;-70
2022/12/21 12:59:41;;;;;;;12.45;7.35;;;9.30;99.90;;;;;;6161329;23;20002;-70
2022/12/21 13:02:39;;;;;;;13.83;6.67;;;9.20;99.90;;;;;;6160618;23;20001;-70
2022/12/21 13:05:24;;;;;;;10.48;6.80;;;9.10;99.90;;;;;;6160111;23;20319;-70
2022/12/21 13:08:16;;;;;;;20.02;8.45;;;9.00;99.90;;;;;;6160691;23;20006;-70
2022/12/21 13:10:59;;;;;;;14.98;8.40;;;9.00;99.90;;;;;;6159609;23;20065;-69
2022/12/21 13:13:47;;;;;;;18.15;9.07;;;8.90;99.90;;;;;;6159810;23;19998;-70
2022/12/21 13:16:33;;;;;;;12.77;7.85;;;8.90;99.90;;;;;;6159729;23;20266;-70
2022/12/21 13:19:07;;;;;;;14.65;9.10;;;8.80;99.90;;;;;;6158327;23;20005;-70
2022/12/21 13:21:37;;;;;;;12.32;7.65;;;8.80;99.90;;;;;;6157996;23;20052;-69
2022/12/21 13:24:14;;;;;;;13.35;7.85;;;8.80;99.90;;;;;;6160376;23;20081;-69
2022/12/21 13:26:52;;;;;;;12.65;7.68;;;8.70;99.90;;;;;;6160588;23;20057;-69
2022/12/21 13:29:47;;;;;;;14.45;8.98;;;8.70;99.90;;;;;;6158413;23;20010;-69
2022/12/21 13:32:16;;;;;;;10.93;6.65;;;8.70;99.90;;;;;;6158916;23;20097;-70